sensor_id;sensor_type;location;lat;lon;timestamp;pressure;altitude;pressure_sealevel;temperature;humidity
48517;BME280;34310;51.904;4.256;2023-04-26T00:01:07;102069.31;;;16.17;59.45
48517;BME280;34310;51.904;4.256;2023-04-26T00:03:34;102068.41;;;16.16;59.50
48517;BME280;34310;51.904;4.256;2023-04-26T00:06:02;102073.63;;;16.16;59.36
48517;BME280;34310;51.904;4.256;2023-04-26T00:08:29;102065.69;;;16.15;59.56
48517;BME280;34310;51.904;4.256;2023-04-26T00:10:57;102068.22;;;16.13;59.50
48517;BME280;34310;51.904;4.256;2023-04-26T00:13:24;102071.63;;;16.12;59.48
48517;BME280;34310;51.904;4.256;2023-04-26T00:15:51;102077.63;;;16.11;59.59
48517;BME280;34310;51.904;4.256;2023-04-26T00:18:19;102078.53;;;16.11;59.48
48517;BME280;34310;51.904;4.256;2023-04-26T00:20:46;102081.94;;;16.10;59.37
48517;BME280;34310;51.904;4.256;2023-04-26T00:23:14;102089.66;;;16.09;59.50
48517;BME280;34310;51.904;4.256;2023-04-26T00:25:41;102079.22;;;16.09;59.56
48517;BME280;34310;51.904;4.256;2023-04-26T00:28:08;102080.94;;;16.08;59.40
48517;BME280;34310;51.904;4.256;2023-04-26T00:30:36;102073.00;;;16.07;59.50
48517;BME280;34310;51.904;4.256;2023-04-26T00:33:07;102076.41;;;16.06;59.51
48517;BME280;34310;51.904;4.256;2023-04-26T00:35:35;102078.13;;;16.05;59.57
48517;BME280;34310;51.904;4.256;2023-04-26T00:38:04;102082.44;;;16.05;59.60
48517;BME280;34310;51.904;4.256;2023-04-26T00:40:31;102079.72;;;16.03;59.41
48517;BME280;34310;51.904;4.256;2023-04-26T00:43:02;102078.81;;;16.03;59.35
48517;BME280;34310;51.904;4.256;2023-04-26T00:45:30;102083.13;;;16.02;59.52
48517;BME280;34310;51.904;4.256;2023-04-26T00:48:00;102070.91;;;16.01;59.62
48517;BME280;34310;51.904;4.256;2023-04-26T00:50:28;102071.69;;;16.00;59.64
48517;BME280;34310;51.904;4.256;2023-04-26T00:52:57;102079.50;;;16.00;59.65
48517;BME280;34310;51.904;4.256;2023-04-26T00:55:25;102077.59;;;15.98;59.56
48517;BME280;34310;51.904;4.256;2023-04-26T00:57:53;102082.81;;;15.98;59.66
48517;BME280;34310;51.904;4.256;2023-04-26T01:00:21;102080.09;;;15.96;59.51
48517;BME280;34310;51.904;4.256;2023-04-26T01:02:48;102074.88;;;15.96;59.63
48517;BME280;34310;51.904;4.256;2023-04-26T01:05:17;102072.19;;;15.95;59.56
48517;BME280;34310;51.904;4.256;2023-04-26T01:07:45;102073.88;;;15.94;59.45
48517;BME280;34310;51.904;4.256;2023-04-26T01:10:13;102076.38;;;15.93;59.45
48517;BME280;34310;51.904;4.256;2023-04-26T01:12:40;102079.00;;;15.93;59.61
48517;BME280;34310;51.904;4.256;2023-04-26T01:15:08;102071.06;;;15.91;59.52
48517;BME280;34310;51.904;4.256;2023-04-26T01:17:36;102068.34;;;15.90;59.50
48517;BME280;34310;51.904;4.256;2023-04-26T01:20:04;102077.09;;;15.90;59.71
48517;BME280;34310;51.904;4.256;2023-04-26T01:22:33;102073.53;;;15.90;59.70
48517;BME280;34310;51.904;4.256;2023-04-26T01:25:03;102070.84;;;15.88;59.54
48517;BME280;34310;51.904;4.256;2023-04-26T01:27:34;102079.44;;;15.87;59.53
48517;BME280;34310;51.904;4.256;2023-04-26T01:30:02;102075.03;;;15.86;59.68
48517;BME280;34310;51.904;4.256;2023-04-26T01:32:29;102072.44;;;15.86;59.71
48517;BME280;34310;51.904;4.256;2023-04-26T01:34:58;102068.91;;;15.86;59.67
48517;BME280;34310;51.904;4.256;2023-04-26T01:37:25;102068.03;;;15.85;59.55
48517;BME280;34310;51.904;4.256;2023-04-26T01:39:53;102073.13;;;15.84;59.56
48517;BME280;34310;51.904;4.256;2023-04-26T01:42:20;102074.81;;;15.83;59.69
48517;BME280;34310;51.904;4.256;2023-04-26T01:44:48;102074.72;;;15.82;59.67
48517;BME280;34310;51.904;4.256;2023-04-26T01:47:15;102072.91;;;15.80;59.58
48517;BME280;34310;51.904;4.256;2023-04-26T01:49:42;102073.81;;;15.81;59.71
48517;BME280;34310;51.904;4.256;2023-04-26T01:52:10;102072.91;;;15.80;59.70
48517;BME280;34310;51.904;4.256;2023-04-26T01:54:37;102066.69;;;15.78;59.65
48517;BME280;34310;51.904;4.256;2023-04-26T01:57:04;102074.50;;;15.78;59.57
48517;BME280;34310;51.904;4.256;2023-04-26T01:59:32;102071.81;;;15.77;59.62
48517;BME280;34310;51.904;4.256;2023-04-26T02:01:59;102068.28;;;15.76;59.57
48517;BME280;34310;51.904;4.256;2023-04-26T02:04:27;102069.09;;;15.75;59.66
48517;BME280;34310;51.904;4.256;2023-04-26T02:06:54;102063.78;;;15.74;59.65
48517;BME280;34310;51.904;4.256;2023-04-26T02:09:23;102068.19;;;15.75;59.66
48517;BME280;34310;51.904;4.256;2023-04-26T02:11:50;102068.09;;;15.73;59.60
48517;BME280;34310;51.904;4.256;2023-04-26T02:14:17;102067.97;;;15.72;59.80
48517;BME280;34310;51.904;4.256;2023-04-26T02:16:45;102064.47;;;15.71;59.79
48517;BME280;34310;51.904;4.256;2023-04-26T02:19:12;102067.88;;;15.70;59.65
48517;BME280;34310;51.904;4.256;2023-04-26T02:21:54;102061.78;;;15.70;59.74
48517;BME280;34310;51.904;4.256;2023-04-26T02:24:26;102062.56;;;15.69;59.63
48517;BME280;34310;51.904;4.256;2023-04-26T02:26:53;102057.25;;;15.67;59.76
48517;BME280;34310;51.904;4.256;2023-04-26T02:29:21;102061.44;;;15.65;59.80
48517;BME280;34310;51.904;4.256;2023-04-26T02:32:06;102058.97;;;15.67;59.66
48517;BME280;34310;51.904;4.256;2023-04-26T02:34:34;102057.16;;;15.66;59.64
48517;BME280;34310;51.904;4.256;2023-04-26T02:37:01;102063.06;;;15.63;59.65
48517;BME280;34310;51.904;4.256;2023-04-26T02:39:29;102056.84;;;15.61;59.85
48517;BME280;34310;51.904;4.256;2023-04-26T02:41:57;102052.38;;;15.60;59.64
48517;BME280;34310;51.904;4.256;2023-04-26T02:44:28;102055.91;;;15.61;59.73
48517;BME280;34310;51.904;4.256;2023-04-26T02:46:57;102045.38;;;15.59;59.71
48517;BME280;34310;51.904;4.256;2023-04-26T02:49:24;102047.09;;;15.59;59.71
48517;BME280;34310;51.904;4.256;2023-04-26T02:51:52;102048.78;;;15.58;59.62
48517;BME280;34310;51.904;4.256;2023-04-26T02:54:19;102035.63;;;15.57;59.64
48517;BME280;34310;51.904;4.256;2023-04-26T02:56:46;102043.34;;;15.55;59.81
48517;BME280;34310;51.904;4.256;2023-04-26T02:59:13;102045.94;;;15.55;59.83
48517;BME280;34310;51.904;4.256;2023-04-26T03:01:41;102048.44;;;15.54;59.80
48517;BME280;34310;51.904;4.256;2023-04-26T03:04:08;102051.03;;;15.54;59.81
48517;BME280;34310;51.904;4.256;2023-04-26T03:06:36;102050.13;;;15.53;59.88
48517;BME280;34310;51.904;4.256;2023-04-26T03:09:03;102044.03;;;15.53;59.84
48517;BME280;34310;51.904;4.256;2023-04-26T03:11:31;102041.31;;;15.51;59.76
48517;BME280;34310;51.904;4.256;2023-04-26T03:13:59;102046.53;;;15.51;59.87
48517;BME280;34310;51.904;4.256;2023-04-26T03:16:27;102043.81;;;15.49;59.92
48517;BME280;34310;51.904;4.256;2023-04-26T03:18:54;102049.00;;;15.49;59.93
48517;BME280;34310;51.904;4.256;2023-04-26T03:21:22;102049.81;;;15.48;59.72
48517;BME280;34310;51.904;4.256;2023-04-26T03:23:49;102046.31;;;15.48;59.83
48517;BME280;34310;51.904;4.256;2023-04-26T03:26:16;102038.41;;;15.46;59.88
48517;BME280;34310;51.904;4.256;2023-04-26T03:28:44;102042.69;;;15.46;59.89
48517;BME280;34310;51.904;4.256;2023-04-26T03:31:11;102040.78;;;15.43;59.77
48517;BME280;34310;51.904;4.256;2023-04-26T03:33:38;102040.78;;;15.43;59.86
48517;BME280;34310;51.904;4.256;2023-04-26T03:36:06;102035.59;;;15.43;60.00
48517;BME280;34310;51.904;4.256;2023-04-26T03:38:33;102046.78;;;15.42;59.82
48517;BME280;34310;51.904;4.256;2023-04-26T03:41:01;102034.56;;;15.41;59.86
48517;BME280;34310;51.904;4.256;2023-04-26T03:43:28;102028.47;;;15.41;59.89
48517;BME280;34310;51.904;4.256;2023-04-26T03:45:55;102032.75;;;15.40;60.02
48517;BME280;34310;51.904;4.256;2023-04-26T03:48:22;102026.66;;;15.40;59.96
48517;BME280;34310;51.904;4.256;2023-04-26T03:50:50;102024.84;;;15.39;59.87
48517;BME280;34310;51.904;4.256;2023-04-26T03:53:17;102029.16;;;15.38;59.96
48517;BME280;34310;51.904;4.256;2023-04-26T03:55:44;102023.06;;;15.38;60.05
48517;BME280;34310;51.904;4.256;2023-04-26T03:58:12;102027.34;;;15.37;60.12
48517;BME280;34310;51.904;4.256;2023-04-26T04:00:40;102029.06;;;15.37;60.00
48517;BME280;34310;51.904;4.256;2023-04-26T04:03:08;102035.06;;;15.36;59.93
48517;BME280;34310;51.904;4.256;2023-04-26T04:05:36;102026.22;;;15.34;60.12
48517;BME280;34310;51.904;4.256;2023-04-26T04:08:03;102031.53;;;15.35;60.23
48517;BME280;34310;51.904;4.256;2023-04-26T04:10:31;102032.25;;;15.33;59.99
48517;BME280;34310;51.904;4.256;2023-04-26T04:12:58;102025.34;;;15.33;59.92
48517;BME280;34310;51.904;4.256;2023-04-26T04:15:25;102030.41;;;15.32;59.96
48517;BME280;34310;51.904;4.256;2023-04-26T04:17:53;102026.88;;;15.31;59.98
48517;BME280;34310;51.904;4.256;2023-04-26T04:20:20;102033.78;;;15.31;60.10
48517;BME280;34310;51.904;4.256;2023-04-26T04:22:48;102032.78;;;15.29;60.20
48517;BME280;34310;51.904;4.256;2023-04-26T04:25:16;102025.78;;;15.28;60.08
48517;BME280;34310;51.904;4.256;2023-04-26T04:27:43;102026.56;;;15.27;60.08
48517;BME280;34310;51.904;4.256;2023-04-26T04:30:11;102028.38;;;15.28;60.09
48517;BME280;34310;51.904;4.256;2023-04-26T04:32:38;102026.47;;;15.25;60.18
48517;BME280;34310;51.904;4.256;2023-04-26T04:35:06;102030.75;;;15.25;60.10
48517;BME280;34310;51.904;4.256;2023-04-26T04:37:34;102034.28;;;15.25;60.07
48517;BME280;34310;51.904;4.256;2023-04-26T04:40:01;102038.47;;;15.23;60.18
48517;BME280;34310;51.904;4.256;2023-04-26T04:42:28;102038.47;;;15.23;60.13
48517;BME280;34310;51.904;4.256;2023-04-26T04:44:56;102036.66;;;15.22;60.23
48517;BME280;34310;51.904;4.256;2023-04-26T04:47:25;102037.44;;;15.21;60.11
48517;BME280;34310;51.904;4.256;2023-04-26T04:49:52;102038.25;;;15.20;60.20
48517;BME280;34310;51.904;4.256;2023-04-26T04:52:20;102027.84;;;15.20;60.33
48517;BME280;34310;51.904;4.256;2023-04-26T04:54:47;102030.34;;;15.18;60.26
48517;BME280;34310;51.904;4.256;2023-04-26T04:57:15;102031.13;;;15.17;60.33
48517;BME280;34310;51.904;4.256;2023-04-26T04:59:43;102030.22;;;15.17;60.25
48517;BME280;34310;51.904;4.256;2023-04-26T05:02:10;102034.63;;;15.18;60.30
48517;BME280;34310;51.904;4.256;2023-04-26T05:04:37;102031.03;;;15.16;60.35
48517;BME280;34310;51.904;4.256;2023-04-26T05:07:05;102031.03;;;15.16;60.29
48517;BME280;34310;51.904;4.256;2023-04-26T05:09:33;102038.84;;;15.16;60.35
48517;BME280;34310;51.904;4.256;2023-04-26T05:12:00;102036.13;;;15.14;60.42
48517;BME280;34310;51.904;4.256;2023-04-26T05:14:29;102037.03;;;15.15;60.30
48517;BME280;34310;51.904;4.256;2023-04-26T05:16:57;102044.84;;;15.15;60.39
48517;BME280;34310;51.904;4.256;2023-04-26T05:19:24;102046.53;;;15.14;60.39
48517;BME280;34310;51.904;4.256;2023-04-26T05:21:52;102045.63;;;15.14;60.35
48517;BME280;34310;51.904;4.256;2023-04-26T05:24:19;102038.63;;;15.13;60.35
48517;BME280;34310;51.904;4.256;2023-04-26T05:26:47;102041.22;;;15.13;60.47
48517;BME280;34310;51.904;4.256;2023-04-26T05:29:14;102049.03;;;15.13;60.32
48517;BME280;34310;51.904;4.256;2023-04-26T05:31:42;102042.91;;;15.12;60.50
48517;BME280;34310;51.904;4.256;2023-04-26T05:34:10;102050.72;;;15.12;60.41
48517;BME280;34310;51.904;4.256;2023-04-26T05:36:37;102053.31;;;15.12;60.37
48517;BME280;34310;51.904;4.256;2023-04-26T05:39:04;102052.41;;;15.12;60.52
48517;BME280;34310;51.904;4.256;2023-04-26T05:41:33;102055.81;;;15.11;60.44
48517;BME280;34310;51.904;4.256;2023-04-26T05:44:00;102062.81;;;15.12;60.42
48517;BME280;34310;51.904;4.256;2023-04-26T05:46:27;102066.22;;;15.11;60.40
48517;BME280;34310;51.904;4.256;2023-04-26T05:48:55;102064.53;;;15.11;60.53
48517;BME280;34310;51.904;4.256;2023-04-26T05:51:23;102070.63;;;15.12;60.49
48517;BME280;34310;51.904;4.256;2023-04-26T05:53:50;102062.72;;;15.10;60.60
48517;BME280;34310;51.904;4.256;2023-04-26T05:56:18;102072.22;;;15.10;60.54
48517;BME280;34310;51.904;4.256;2023-04-26T05:58:45;102068.72;;;15.09;60.62
48517;BME280;34310;51.904;4.256;2023-04-26T06:01:13;102074.81;;;15.10;60.60
48517;BME280;34310;51.904;4.256;2023-04-26T06:03:41;102069.50;;;15.08;60.41
48517;BME280;34310;51.904;4.256;2023-04-26T06:06:08;102070.41;;;15.09;60.49
48517;BME280;34310;51.904;4.256;2023-04-26T06:08:36;102076.41;;;15.08;60.48
48517;BME280;34310;51.904;4.256;2023-04-26T06:11:03;102078.09;;;15.07;60.50
48517;BME280;34310;51.904;4.256;2023-04-26T06:13:30;102079.00;;;15.08;60.53
48517;BME280;34310;51.904;4.256;2023-04-26T06:15:59;102071.19;;;15.08;60.59
48517;BME280;34310;51.904;4.256;2023-04-26T06:18:26;102078.09;;;15.07;60.51
48517;BME280;34310;51.904;4.256;2023-04-26T06:20:54;102080.69;;;15.07;60.60
48517;BME280;34310;51.904;4.256;2023-04-26T06:23:21;102085.91;;;15.07;60.55
48517;BME280;34310;51.904;4.256;2023-04-26T06:25:48;102085.00;;;15.07;60.44
48517;BME280;34310;51.904;4.256;2023-04-26T06:28:15;102080.59;;;15.06;60.44
48517;BME280;34310;51.904;4.256;2023-04-26T06:30:43;102087.59;;;15.07;60.55
48517;BME280;34310;51.904;4.256;2023-04-26T06:33:10;102092.81;;;15.07;60.53
48517;BME280;34310;51.904;4.256;2023-04-26T06:35:41;102087.59;;;15.07;60.61
48517;BME280;34310;51.904;4.256;2023-04-26T06:38:08;102085.81;;;15.06;60.62
48517;BME280;34310;51.904;4.256;2023-04-26T06:40:35;102079.69;;;15.05;60.57
48517;BME280;34310;51.904;4.256;2023-04-26T06:43:03;102078.00;;;15.06;60.59
48517;BME280;34310;51.904;4.256;2023-04-26T06:45:30;102072.78;;;15.06;60.67
48517;BME280;34310;51.904;4.256;2023-04-26T06:47:58;102074.50;;;15.05;60.69
48517;BME280;34310;51.904;4.256;2023-04-26T06:50:27;102080.59;;;15.06;60.61
48517;BME280;34310;51.904;4.256;2023-04-26T06:52:54;102089.31;;;15.06;60.59
48517;BME280;34310;51.904;4.256;2023-04-26T06:55:22;102074.50;;;15.05;60.70
48517;BME280;34310;51.904;4.256;2023-04-26T06:57:50;102073.59;;;15.05;60.56
48517;BME280;34310;51.904;4.256;2023-04-26T07:00:17;102083.19;;;15.06;60.60
48517;BME280;34310;51.904;4.256;2023-04-26T07:02:45;102072.78;;;15.06;60.56
48517;BME280;34310;51.904;4.256;2023-04-26T07:05:13;102078.78;;;15.05;60.63
48517;BME280;34310;51.904;4.256;2023-04-26T07:07:41;102084.00;;;15.05;60.63
48517;BME280;34310;51.904;4.256;2023-04-26T07:10:09;102090.09;;;15.05;60.63
48517;BME280;34310;51.904;4.256;2023-04-26T07:12:37;102082.28;;;15.05;60.67
48517;BME280;34310;51.904;4.256;2023-04-26T07:15:05;102091.78;;;15.05;60.63
48517;BME280;34310;51.904;4.256;2023-04-26T07:17:32;102081.38;;;15.05;60.72
48517;BME280;34310;51.904;4.256;2023-04-26T07:20:00;102085.81;;;15.06;60.89
48517;BME280;34310;51.904;4.256;2023-04-26T07:22:27;102078.00;;;15.06;60.66
48517;BME280;34310;51.904;4.256;2023-04-26T07:24:55;102085.81;;;15.06;60.77
48517;BME280;34310;51.904;4.256;2023-04-26T07:27:22;102077.88;;;15.04;60.76
48517;BME280;34310;51.904;4.256;2023-04-26T07:29:53;102091.00;;;15.06;60.83
48517;BME280;34310;51.904;4.256;2023-04-26T07:32:22;102094.50;;;15.06;60.90
48517;BME280;34310;51.904;4.256;2023-04-26T07:34:49;102092.81;;;15.07;60.93
48517;BME280;34310;51.904;4.256;2023-04-26T07:37:17;102090.22;;;15.07;60.87
48517;BME280;34310;51.904;4.256;2023-04-26T07:39:44;102096.31;;;15.07;60.77
48517;BME280;34310;51.904;4.256;2023-04-26T07:42:12;102101.50;;;15.07;60.93
48517;BME280;34310;51.904;4.256;2023-04-26T07:44:39;102098.91;;;15.07;60.86
48517;BME280;34310;51.904;4.256;2023-04-26T07:47:12;102095.53;;;15.08;60.93
48517;BME280;34310;51.904;4.256;2023-04-26T07:49:40;102092.81;;;15.07;60.86
48517;BME280;34310;51.904;4.256;2023-04-26T07:52:08;102088.50;;;15.07;60.80
48517;BME280;34310;51.904;4.256;2023-04-26T07:54:36;102105.91;;;15.08;60.73
48517;BME280;34310;51.904;4.256;2023-04-26T07:57:03;102106.03;;;15.10;60.82
48517;BME280;34310;51.904;4.256;2023-04-26T07:59:31;102108.63;;;15.10;60.73
48517;BME280;34310;51.904;4.256;2023-04-26T08:01:58;102107.72;;;15.09;60.77
48517;BME280;34310;51.904;4.256;2023-04-26T08:04:32;102109.53;;;15.10;60.72
48517;BME280;34310;51.904;4.256;2023-04-26T08:07:01;102102.63;;;15.11;60.79
48517;BME280;34310;51.904;4.256;2023-04-26T08:09:29;102100.03;;;15.11;60.73
48517;BME280;34310;51.904;4.256;2023-04-26T08:11:57;102100.16;;;15.12;60.73
48517;BME280;34310;51.904;4.256;2023-04-26T08:14:24;102107.03;;;15.12;60.78
48517;BME280;34310;51.904;4.256;2023-04-26T08:16:52;102109.66;;;15.12;60.88
48517;BME280;34310;51.904;4.256;2023-04-26T08:19:19;102102.75;;;15.12;60.68
48517;BME280;34310;51.904;4.256;2023-04-26T08:21:47;102106.25;;;15.13;60.85
48517;BME280;34310;51.904;4.256;2023-04-26T08:24:14;102112.34;;;15.13;60.70
48517;BME280;34310;51.904;4.256;2023-04-26T08:26:42;102103.66;;;15.13;60.84
48517;BME280;34310;51.904;4.256;2023-04-26T08:29:09;102102.84;;;15.14;60.81
48517;BME280;34310;51.904;4.256;2023-04-26T08:31:36;102108.06;;;15.14;60.75
48517;BME280;34310;51.904;4.256;2023-04-26T08:34:04;102101.16;;;15.14;60.82
48517;BME280;34310;51.904;4.256;2023-04-26T08:36:36;102102.97;;;15.15;60.75
48517;BME280;34310;51.904;4.256;2023-04-26T08:39:03;102093.34;;;15.14;60.66
48517;BME280;34310;51.904;4.256;2023-04-26T08:41:36;102097.75;;;15.15;60.83
48517;BME280;34310;51.904;4.256;2023-04-26T08:44:04;102099.56;;;15.16;60.77
48517;BME280;34310;51.904;4.256;2023-04-26T08:46:39;102103.88;;;15.16;60.92
48517;BME280;34310;51.904;4.256;2023-04-26T08:49:39;102109.19;;;15.17;60.72
48517;BME280;34310;51.904;4.256;2023-04-26T08:52:09;102106.56;;;15.17;60.79
48517;BME280;34310;51.904;4.256;2023-04-26T08:54:38;102104.78;;;15.16;60.73
48517;BME280;34310;51.904;4.256;2023-04-26T08:57:07;102105.69;;;15.17;60.91
48517;BME280;34310;51.904;4.256;2023-04-26T08:59:36;102103.06;;;15.17;60.88
48517;BME280;34310;51.904;4.256;2023-04-26T09:02:08;102107.47;;;15.18;60.76
48517;BME280;34310;51.904;4.256;2023-04-26T09:04:36;102102.28;;;15.18;60.69
48517;BME280;34310;51.904;4.256;2023-04-26T09:07:06;102103.19;;;15.18;60.74
48517;BME280;34310;51.904;4.256;2023-04-26T09:09:38;102101.47;;;15.19;60.80
48517;BME280;34310;51.904;4.256;2023-04-26T09:12:07;102110.19;;;15.19;60.78
48517;BME280;34310;51.904;4.256;2023-04-26T09:14:35;102105.00;;;15.19;60.81
48517;BME280;34310;51.904;4.256;2023-04-26T09:17:02;102105.00;;;15.19;60.86
48517;BME280;34310;51.904;4.256;2023-04-26T09:19:40;102098.09;;;15.20;60.79
48517;BME280;34310;51.904;4.256;2023-04-26T09:22:10;102101.59;;;15.21;60.81
48517;BME280;34310;51.904;4.256;2023-04-26T09:24:48;102100.69;;;15.20;60.94
48517;BME280;34310;51.904;4.256;2023-04-26T09:27:17;102106.00;;;15.22;60.71
48517;BME280;34310;51.904;4.256;2023-04-26T09:32:26;102093.91;;;15.22;60.87
48517;BME280;34310;51.904;4.256;2023-04-26T09:34:55;102094.78;;;15.23;60.85
48517;BME280;34310;51.904;4.256;2023-04-26T09:37:22;102089.59;;;15.23;60.78
48517;BME280;34310;51.904;4.256;2023-04-26T09:39:49;102093.91;;;15.22;60.78
48517;BME280;34310;51.904;4.256;2023-04-26T09:42:17;102090.50;;;15.23;60.76
48517;BME280;34310;51.904;4.256;2023-04-26T09:44:45;102098.31;;;15.23;60.86
48517;BME280;34310;51.904;4.256;2023-04-26T09:47:12;102098.31;;;15.23;60.80
48517;BME280;34310;51.904;4.256;2023-04-26T09:49:48;102103.63;;;15.25;60.94
48517;BME280;34310;51.904;4.256;2023-04-26T09:52:17;102105.31;;;15.24;60.90
48517;BME280;34310;51.904;4.256;2023-04-26T09:54:50;102098.41;;;15.25;60.88
48517;BME280;34310;51.904;4.256;2023-04-26T09:57:19;102100.22;;;15.26;60.97
48517;BME280;34310;51.904;4.256;2023-04-26T09:59:52;102098.53;;;15.26;60.82
48517;BME280;34310;51.904;4.256;2023-04-26T10:02:26;102102.81;;;15.26;60.83
48517;BME280;34310;51.904;4.256;2023-04-26T10:04:55;102101.13;;;15.26;60.90
48517;BME280;34310;51.904;4.256;2023-04-26T10:07:24;102105.53;;;15.27;60.97
48517;BME280;34310;51.904;4.256;2023-04-26T10:09:53;102101.22;;;15.28;60.86
48517;BME280;34310;51.904;4.256;2023-04-26T10:12:22;102103.84;;;15.28;60.86
48517;BME280;34310;51.904;4.256;2023-04-26T10:14:49;102103.03;;;15.29;60.88
48517;BME280;34310;51.904;4.256;2023-04-26T10:17:18;102111.75;;;15.29;60.85
48517;BME280;34310;51.904;4.256;2023-04-26T10:19:48;102106.53;;;15.29;61.02
48517;BME280;34310;51.904;4.256;2023-04-26T10:22:25;102117.84;;;15.30;60.97
48517;BME280;34310;51.904;4.256;2023-04-26T10:24:54;102117.06;;;15.31;60.84
48517;BME280;34310;51.904;4.256;2023-04-26T10:30:13;102106.66;;;15.31;60.97
48517;BME280;34310;51.904;4.256;2023-04-26T10:35:27;102111.06;;;15.32;60.90
48517;BME280;34310;51.904;4.256;2023-04-26T10:40:27;102105.84;;;15.32;60.94
48517;BME280;34310;51.904;4.256;2023-04-26T10:45:46;102101.69;;;15.34;60.92
48517;BME280;34310;51.904;4.256;2023-04-26T10:53:31;102091.41;;;15.35;60.95
48517;BME280;34310;51.904;4.256;2023-04-26T10:55:59;102096.59;;;15.35;60.91
48517;BME280;34310;51.904;4.256;2023-04-26T10:58:28;102085.41;;;15.36;60.94
48517;BME280;34310;51.904;4.256;2023-04-26T11:04:07;102083.69;;;15.37;61.00
48517;BME280;34310;51.904;4.256;2023-04-26T11:06:50;102079.41;;;15.37;60.95
48517;BME280;34310;51.904;4.256;2023-04-26T11:09:38;102083.00;;;15.39;60.95
48517;BME280;34310;51.904;4.256;2023-04-26T11:12:11;102072.59;;;15.39;61.05
48517;BME280;34310;51.904;4.256;2023-04-26T11:14:42;102077.81;;;15.39;60.91
48517;BME280;34310;51.904;4.256;2023-04-26T11:17:11;102077.81;;;15.39;61.02
48517;BME280;34310;51.904;4.256;2023-04-26T11:19:40;102064.00;;;15.40;60.97
48517;BME280;34310;51.904;4.256;2023-04-26T11:22:08;102071.00;;;15.41;61.02
48517;BME280;34310;51.904;4.256;2023-04-26T11:24:35;102077.91;;;15.41;61.16
48517;BME280;34310;51.904;4.256;2023-04-26T11:27:10;102063.19;;;15.41;61.16
48517;BME280;34310;51.904;4.256;2023-04-26T11:29:38;102070.22;;;15.42;61.12
48517;BME280;34310;51.904;4.256;2023-04-26T11:32:06;102069.41;;;15.43;60.99
48517;BME280;34310;51.904;4.256;2023-04-26T11:34:35;102068.50;;;15.43;61.02
48517;BME280;34310;51.904;4.256;2023-04-26T11:37:05;102076.44;;;15.44;61.11
48517;BME280;34310;51.904;4.256;2023-04-26T11:39:33;102070.41;;;15.45;61.03
48517;BME280;34310;51.904;4.256;2023-04-26T11:42:10;102063.50;;;15.46;61.08
48517;BME280;34310;51.904;4.256;2023-04-26T11:44:39;102070.53;;;15.47;61.13
48517;BME280;34310;51.904;4.256;2023-04-26T11:47:07;102070.63;;;15.48;61.18
48517;BME280;34310;51.904;4.256;2023-04-26T11:49:37;102070.63;;;15.48;61.24
48517;BME280;34310;51.904;4.256;2023-04-26T11:52:05;102067.25;;;15.49;61.14
48517;BME280;34310;51.904;4.256;2023-04-26T11:54:36;102057.63;;;15.48;61.01
48517;BME280;34310;51.904;4.256;2023-04-26T11:57:17;102063.84;;;15.50;61.17
48517;BME280;34310;51.904;4.256;2023-04-26T11:59:44;102068.25;;;15.52;61.16
48517;BME280;34310;51.904;4.256;2023-04-26T12:02:12;102063.94;;;15.52;61.15
48517;BME280;34310;51.904;4.256;2023-04-26T12:04:40;102057.84;;;15.52;61.06
48517;BME280;34310;51.904;4.256;2023-04-26T12:07:08;102073.56;;;15.53;61.23
48517;BME280;34310;51.904;4.256;2023-04-26T12:09:39;102068.34;;;15.53;61.15
48517;BME280;34310;51.904;4.256;2023-04-26T12:12:08;102068.47;;;15.55;61.06
48517;BME280;34310;51.904;4.256;2023-04-26T12:14:38;102066.75;;;15.55;61.05
48517;BME280;34310;51.904;4.256;2023-04-26T12:17:06;102059.84;;;15.56;61.02
48517;BME280;34310;51.904;4.256;2023-04-26T12:19:38;102067.75;;;15.57;61.06
48517;BME280;34310;51.904;4.256;2023-04-26T12:22:07;102067.00;;;15.58;61.23
48517;BME280;34310;51.904;4.256;2023-04-26T12:24:35;102063.47;;;15.58;61.06
48517;BME280;34310;51.904;4.256;2023-04-26T12:27:05;102067.91;;;15.59;61.06
48517;BME280;34310;51.904;4.256;2023-04-26T12:29:33;102063.59;;;15.59;61.23
48517;BME280;34310;51.904;4.256;2023-04-26T12:32:01;102060.19;;;15.60;61.13
48517;BME280;34310;51.904;4.256;2023-04-26T12:34:29;102055.13;;;15.62;61.05
48517;BME280;34310;51.904;4.256;2023-04-26T12:36:57;102058.50;;;15.61;61.13
48517;BME280;34310;51.904;4.256;2023-04-26T12:39:24;102069.16;;;15.64;61.09
48517;BME280;34310;51.904;4.256;2023-04-26T12:41:52;102068.38;;;15.65;61.32
48517;BME280;34310;51.904;4.256;2023-04-26T12:44:19;102066.66;;;15.65;61.09
48517;BME280;34310;51.904;4.256;2023-04-26T12:46:48;102066.66;;;15.65;61.19
48517;BME280;34310;51.904;4.256;2023-04-26T12:49:16;102071.97;;;15.67;61.10
48517;BME280;34310;51.904;4.256;2023-04-26T12:51:43;102077.38;;;15.70;61.28
48517;BME280;34310;51.904;4.256;2023-04-26T12:54:11;102073.88;;;15.69;61.30
48517;BME280;34310;51.904;4.256;2023-04-26T12:56:38;102081.69;;;15.69;61.29
48517;BME280;34310;51.904;4.256;2023-04-26T12:59:10;102071.38;;;15.71;61.28
48517;BME280;34310;51.904;4.256;2023-04-26T13:01:37;102076.59;;;15.71;61.19
48517;BME280;34310;51.904;4.256;2023-04-26T13:04:04;102075.78;;;15.72;61.28
48517;BME280;34310;51.904;4.256;2023-04-26T13:06:33;102070.69;;;15.73;61.35
48517;BME280;34310;51.904;4.256;2023-04-26T13:09:01;102075.00;;;15.73;61.31
48517;BME280;34310;51.904;4.256;2023-04-26T13:11:28;102080.31;;;15.74;61.35
48517;BME280;34310;51.904;4.256;2023-04-26T13:13:55;102079.50;;;15.75;61.36
48517;BME280;34310;51.904;4.256;2023-04-26T13:16:23;102077.00;;;15.77;61.23
48517;BME280;34310;51.904;4.256;2023-04-26T13:18:50;102075.31;;;15.77;61.19